Time;durP1;ratioP1;P1;durP2;ratioP2;P2;SDS_P1;SDS_P2;PMS_P1;PMS_P2;Temp;Humidity;BMP_temperature;BMP_pressure;BME280_temperature;BME280_humidity;BME280_pressure;Samples;Min_cycle;Max_cycle;Signal;HPM_P1;HPM_P2
2022/07/19 00:00:02;;;;;;;0.6;0.6;;;;;;;25.3;68.9;101550;;;;
2022/07/19 00:01:00;;;;;;;0.6;0.6;;;;;;;25.3;68.9;101550;;;;
2022/07/19 00:02:00;;;;;;;0.3;0.3;;;;;;;25.4;68.5;101550;;;;
2022/07/19 00:03:00;;;;;;;0.3;0.3;;;;;;;25.4;68.5;101550;;;;
2022/07/19 00:04:00;;;;;;;0.3;0.3;;;;;;;25.3;69.9;101550;;;;
2022/07/19 00:05:00;;;;;;;0.3;0.3;;;;;;;25.3;69.9;101550;;;;
2022/07/19 00:06:00;;;;;;;0.3;0.3;;;;;;;25.3;69.5;101550;;;;
2022/07/19 00:07:00;;;;;;;0.3;0.3;;;;;;;25.3;69.5;101550;;;;
2022/07/19 00:08:00;;;;;;;0.3;0.3;;;;;;;25.2;69.7;101550;;;;
2022/07/19 00:09:01;;;;;;;0.3;0.3;;;;;;;25.2;69.7;101550;;;;
2022/07/19 00:10:00;;;;;;;0.3;0.3;;;;;;;25.2;69.4;101550;;;;
2022/07/19 00:11:00;;;;;;;0.3;0.3;;;;;;;25.2;69.4;101550;;;;
2022/07/19 00:12:00;;;;;;;0.3;0.3;;;;;;;25.2;68.8;101550;;;;
2022/07/19 00:13:00;;;;;;;0.3;0.3;;;;;;;25.2;68.8;101550;;;;
2022/07/19 00:14:00;;;;;;;0.3;0.3;;;;;;;25.1;69.4;101550;;;;
2022/07/19 00:15:00;;;;;;;0.3;0.3;;;;;;;25.1;69.4;101550;;;;
2022/07/19 00:16:00;;;;;;;0.3;0.3;;;;;;;25.1;68.7;101550;;;;
2022/07/19 00:17:00;;;;;;;0.3;0.3;;;;;;;25.1;68.7;101550;;;;
2022/07/19 00:18:00;;;;;;;0.3;0.3;;;;;;;25.1;68.9;101550;;;;
2022/07/19 00:19:00;;;;;;;0.3;0.3;;;;;;;25.1;68.9;101550;;;;
2022/07/19 00:20:00;;;;;;;0.3;0.3;;;;;;;25.1;69.1;101550;;;;
2022/07/19 00:21:00;;;;;;;0.3;0.3;;;;;;;25.1;69.1;101550;;;;
2022/07/19 00:22:00;;;;;;;0.1;0.1;;;;;;;25.1;68.6;101540;;;;
2022/07/19 00:23:00;;;;;;;0.1;0.1;;;;;;;25.1;68.6;101540;;;;
2022/07/19 00:24:00;;;;;;;0.1;0.1;;;;;;;25.0;69.2;101540;;;;
2022/07/19 00:25:00;;;;;;;0.1;0.1;;;;;;;25.0;69.2;101540;;;;
2022/07/19 00:26:01;;;;;;;0.1;0.1;;;;;;;25.0;70.2;101540;;;;
2022/07/19 00:27:00;;;;;;;0.1;0.1;;;;;;;25.0;70.2;101540;;;;
2022/07/19 00:28:00;;;;;;;0.1;0.1;;;;;;;24.9;70.1;101540;;;;
2022/07/19 00:29:01;;;;;;;0.1;0.1;;;;;;;24.9;70.1;101540;;;;
2022/07/19 00:30:00;;;;;;;0.1;0.1;;;;;;;24.9;70.0;101540;;;;
2022/07/19 00:31:00;;;;;;;0.1;0.1;;;;;;;24.9;70.0;101540;;;;
2022/07/19 00:32:00;;;;;;;0.1;0.1;;;;;;;24.9;70.6;101540;;;;
2022/07/19 00:33:01;;;;;;;0.1;0.1;;;;;;;24.9;70.6;101540;;;;
2022/07/19 00:34:00;;;;;;;0.1;0.1;;;;;;;24.8;69.9;101530;;;;
2022/07/19 00:35:00;;;;;;;0.1;0.1;;;;;;;24.8;69.9;101530;;;;
2022/07/19 00:36:00;;;;;;;0.1;0.1;;;;;;;24.8;70.6;101530;;;;
2022/07/19 00:37:00;;;;;;;0.1;0.1;;;;;;;24.8;70.6;101530;;;;
2022/07/19 00:38:04;;;;;;;0.1;0.1;;;;;;;24.8;71.0;101530;;;;
2022/07/19 00:39:00;;;;;;;0.1;0.1;;;;;;;24.8;71.0;101530;;;;
2022/07/19 00:40:01;;;;;;;0.1;0.1;;;;;;;24.8;70.3;101530;;;;
2022/07/19 00:41:00;;;;;;;0.1;0.1;;;;;;;24.8;70.3;101530;;;;
2022/07/19 00:42:00;;;;;;;0.3;0.3;;;;;;;24.8;69.9;101530;;;;
2022/07/19 00:43:00;;;;;;;0.3;0.3;;;;;;;24.8;69.9;101530;;;;
2022/07/19 00:44:00;;;;;;;0.3;0.3;;;;;;;24.7;69.7;101530;;;;
2022/07/19 00:45:00;;;;;;;0.3;0.3;;;;;;;24.7;69.7;101530;;;;
2022/07/19 00:46:00;;;;;;;0.3;0.3;;;;;;;24.7;70.5;101530;;;;
2022/07/19 00:47:00;;;;;;;0.3;0.3;;;;;;;24.7;70.5;101530;;;;
2022/07/19 00:48:00;;;;;;;0.3;0.3;;;;;;;24.6;70.6;101530;;;;
2022/07/19 00:49:00;;;;;;;0.3;0.3;;;;;;;24.6;70.6;101530;;;;
2022/07/19 00:50:00;;;;;;;0.3;0.3;;;;;;;24.6;70.7;101530;;;;
2022/07/19 00:51:00;;;;;;;0.3;0.3;;;;;;;24.6;70.7;101530;;;;
2022/07/19 00:52:02;;;;;;;0.3;0.3;;;;;;;24.6;71.1;101530;;;;
2022/07/19 00:53:04;;;;;;;0.3;0.3;;;;;;;24.6;71.1;101530;;;;
2022/07/19 00:54:00;;;;;;;0.3;0.3;;;;;;;24.5;71.6;101520;;;;
2022/07/19 00:55:00;;;;;;;0.3;0.3;;;;;;;24.5;71.6;101520;;;;
2022/07/19 00:56:02;;;;;;;0.3;0.3;;;;;;;24.5;70.8;101520;;;;
2022/07/19 00:57:00;;;;;;;0.3;0.3;;;;;;;24.5;70.8;101520;;;;
2022/07/19 00:58:00;;;;;;;0.3;0.3;;;;;;;24.5;70.3;101520;;;;
2022/07/19 00:59:02;;;;;;;0.3;0.3;;;;;;;24.5;70.3;101520;;;;
2022/07/19 01:00:00;;;;;;;0.3;0.3;;;;;;;24.5;70.8;101520;;;;
2022/07/19 01:01:00;;;;;;;0.3;0.3;;;;;;;24.5;70.8;101520;;;;
2022/07/19 01:02:00;;;;;;;0.4;0.4;;;;;;;24.5;71.4;101520;;;;
2022/07/19 01:03:00;;;;;;;0.4;0.4;;;;;;;24.5;71.4;101520;;;;
2022/07/19 01:04:00;;;;;;;0.4;0.4;;;;;;;24.5;71.4;101510;;;;
2022/07/19 01:05:00;;;;;;;0.4;0.4;;;;;;;24.5;71.4;101510;;;;
2022/07/19 01:06:00;;;;;;;0.4;0.4;;;;;;;24.4;70.7;101520;;;;
2022/07/19 01:07:03;;;;;;;0.4;0.4;;;;;;;24.4;70.7;101520;;;;
2022/07/19 01:08:00;;;;;;;0.4;0.4;;;;;;;24.4;70.5;101510;;;;
2022/07/19 01:09:01;;;;;;;0.4;0.4;;;;;;;24.4;70.5;101510;;;;
2022/07/19 01:10:00;;;;;;;0.4;0.4;;;;;;;24.4;69.8;101520;;;;
2022/07/19 01:11:02;;;;;;;0.4;0.4;;;;;;;24.4;69.8;101520;;;;
2022/07/19 01:12:00;;;;;;;0.4;0.4;;;;;;;24.4;70.7;101520;;;;
2022/07/19 01:13:00;;;;;;;0.4;0.4;;;;;;;24.4;70.7;101520;;;;
2022/07/19 01:14:00;;;;;;;0.4;0.4;;;;;;;24.3;71.2;101520;;;;
2022/07/19 01:15:00;;;;;;;0.4;0.4;;;;;;;24.3;71.2;101520;;;;
2022/07/19 01:16:00;;;;;;;0.4;0.4;;;;;;;24.3;71.0;101520;;;;
2022/07/19 01:17:00;;;;;;;0.4;0.4;;;;;;;24.3;71.0;101520;;;;
2022/07/19 01:18:00;;;;;;;0.4;0.4;;;;;;;24.3;71.3;101520;;;;
2022/07/19 01:19:00;;;;;;;0.4;0.4;;;;;;;24.3;71.3;101520;;;;
2022/07/19 01:20:00;;;;;;;0.4;0.4;;;;;;;24.2;71.8;101520;;;;
2022/07/19 01:21:01;;;;;;;0.4;0.4;;;;;;;24.2;71.8;101520;;;;
2022/07/19 01:22:00;;;;;;;0.1;0.1;;;;;;;24.2;71.6;101520;;;;
2022/07/19 01:23:00;;;;;;;0.1;0.1;;;;;;;24.2;71.6;101520;;;;
2022/07/19 01:24:00;;;;;;;0.1;0.1;;;;;;;24.2;72.4;101520;;;;
2022/07/19 01:25:00;;;;;;;0.1;0.1;;;;;;;24.2;72.4;101520;;;;
2022/07/19 01:26:00;;;;;;;0.1;0.1;;;;;;;24.1;73.0;101520;;;;
2022/07/19 01:27:00;;;;;;;0.1;0.1;;;;;;;24.1;73.0;101520;;;;
2022/07/19 01:28:00;;;;;;;0.1;0.1;;;;;;;24.1;73.5;101520;;;;
2022/07/19 01:29:00;;;;;;;0.1;0.1;;;;;;;24.1;73.5;101520;;;;
2022/07/19 01:30:00;;;;;;;0.1;0.1;;;;;;;24.1;72.8;101520;;;;
2022/07/19 01:31:00;;;;;;;0.1;0.1;;;;;;;24.1;72.8;101520;;;;
2022/07/19 01:32:00;;;;;;;0.1;0.1;;;;;;;24.0;72.7;101520;;;;
2022/07/19 01:33:00;;;;;;;0.1;0.1;;;;;;;24.0;72.7;101520;;;;
2022/07/19 01:34:00;;;;;;;0.1;0.1;;;;;;;24.0;73.4;101520;;;;
2022/07/19 01:35:00;;;;;;;0.1;0.1;;;;;;;24.0;73.4;101520;;;;
2022/07/19 01:36:00;;;;;;;0.1;0.1;;;;;;;24.0;73.7;101520;;;;
2022/07/19 01:37:00;;;;;;;0.1;0.1;;;;;;;24.0;73.7;101520;;;;
2022/07/19 01:38:00;;;;;;;0.1;0.1;;;;;;;23.9;74.0;101520;;;;
2022/07/19 01:39:00;;;;;;;0.1;0.1;;;;;;;23.9;74.0;101520;;;;
2022/07/19 01:40:00;;;;;;;0.1;0.1;;;;;;;23.9;73.5;101530;;;;
2022/07/19 01:41:00;;;;;;;0.1;0.1;;;;;;;23.9;73.5;101530;;;;
2022/07/19 01:42:00;;;;;;;0.5;0.5;;;;;;;23.9;73.1;101530;;;;
2022/07/19 01:43:00;;;;;;;0.5;0.5;;;;;;;23.9;73.1;101530;;;;
2022/07/19 01:44:00;;;;;;;0.5;0.5;;;;;;;23.9;72.8;101520;;;;
2022/07/19 01:45:00;;;;;;;0.5;0.5;;;;;;;23.9;72.8;101520;;;;
2022/07/19 01:46:00;;;;;;;0.5;0.5;;;;;;;23.9;73.7;101520;;;;
2022/07/19 01:47:01;;;;;;;0.5;0.5;;;;;;;23.9;73.7;101520;;;;
2022/07/19 01:48:00;;;;;;;0.5;0.5;;;;;;;23.8;74.2;101520;;;;
2022/07/19 01:49:00;;;;;;;0.5;0.5;;;;;;;23.8;74.2;101520;;;;
2022/07/19 01:50:00;;;;;;;0.5;0.5;;;;;;;23.8;73.9;101520;;;;
2022/07/19 01:51:00;;;;;;;0.5;0.5;;;;;;;23.8;73.9;101520;;;;
2022/07/19 01:52:00;;;;;;;0.5;0.5;;;;;;;23.8;76.3;101520;;;;
2022/07/19 01:53:00;;;;;;;0.5;0.5;;;;;;;23.8;76.3;101520;;;;
2022/07/19 01:54:00;;;;;;;0.5;0.5;;;;;;;23.7;76.3;101520;;;;
2022/07/19 01:55:00;;;;;;;0.5;0.5;;;;;;;23.7;76.3;101520;;;;
2022/07/19 01:56:03;;;;;;;0.5;0.5;;;;;;;23.7;75.6;101520;;;;
2022/07/19 01:57:00;;;;;;;0.5;0.5;;;;;;;23.7;75.6;101520;;;;
2022/07/19 01:58:00;;;;;;;0.5;0.5;;;;;;;23.6;75.9;101520;;;;
2022/07/19 01:59:00;;;;;;;0.5;0.5;;;;;;;23.6;75.9;101520;;;;
2022/07/19 02:00:00;;;;;;;0.5;0.5;;;;;;;23.7;75.1;101520;;;;
2022/07/19 02:01:00;;;;;;;0.5;0.5;;;;;;;23.7;75.1;101520;;;;
2022/07/19 02:02:00;;;;;;;0.3;0.3;;;;;;;23.7;73.9;101520;;;;
2022/07/19 02:03:00;;;;;;;0.3;0.3;;;;;;;23.7;73.9;101520;;;;
2022/07/19 02:04:00;;;;;;;0.3;0.3;;;;;;;23.6;74.4;101520;;;;
2022/07/19 02:05:00;;;;;;;0.3;0.3;;;;;;;23.6;74.4;101520;;;;
2022/07/19 02:06:00;;;;;;;0.3;0.3;;;;;;;23.6;74.3;101510;;;;
2022/07/19 02:07:00;;;;;;;0.3;0.3;;;;;;;23.6;74.3;101510;;;;
2022/07/19 02:08:00;;;;;;;0.3;0.3;;;;;;;23.5;75.9;101510;;;;
2022/07/19 02:09:00;;;;;;;0.3;0.3;;;;;;;23.5;75.9;101510;;;;
2022/07/19 02:10:00;;;;;;;0.3;0.3;;;;;;;23.5;75.5;101510;;;;
2022/07/19 02:11:34;;;;;;;0.3;0.3;;;;;;;23.5;75.5;101510;;;;
2022/07/19 02:12:00;;;;;;;0.3;0.3;;;;;;;23.4;76.9;101510;;;;
2022/07/19 02:13:00;;;;;;;0.3;0.3;;;;;;;23.4;76.9;101510;;;;
2022/07/19 02:14:00;;;;;;;0.3;0.3;;;;;;;23.4;76.2;101510;;;;
2022/07/19 02:15:00;;;;;;;0.3;0.3;;;;;;;23.4;76.2;101510;;;;
2022/07/19 02:16:00;;;;;;;0.3;0.3;;;;;;;23.4;76.5;101510;;;;
2022/07/19 02:17:00;;;;;;;0.3;0.3;;;;;;;23.4;76.5;101510;;;;
2022/07/19 02:18:00;;;;;;;0.3;0.3;;;;;;;23.4;75.6;101510;;;;
2022/07/19 02:19:00;;;;;;;0.3;0.3;;;;;;;23.4;75.6;101510;;;;
2022/07/19 02:20:00;;;;;;;0.3;0.3;;;;;;;23.4;75.2;101510;;;;
2022/07/19 02:21:00;;;;;;;0.3;0.3;;;;;;;23.4;75.2;101510;;;;
2022/07/19 02:22:00;;;;;;;0.7;0.7;;;;;;;23.4;76.1;101510;;;;
2022/07/19 02:23:00;;;;;;;0.7;0.7;;;;;;;23.4;76.1;101510;;;;
2022/07/19 02:24:00;;;;;;;0.7;0.7;;;;;;;23.3;76.6;101500;;;;
2022/07/19 02:25:00;;;;;;;0.7;0.7;;;;;;;23.3;76.6;101500;;;;
2022/07/19 02:26:00;;;;;;;0.7;0.7;;;;;;;23.2;80.1;101500;;;;
2022/07/19 02:27:00;;;;;;;0.7;0.7;;;;;;;23.2;80.1;101500;;;;
2022/07/19 02:28:00;;;;;;;0.7;0.7;;;;;;;23.2;78.2;101500;;;;
2022/07/19 02:29:00;;;;;;;0.7;0.7;;;;;;;23.2;78.2;101500;;;;
2022/07/19 02:30:00;;;;;;;0.7;0.7;;;;;;;23.2;77.5;101490;;;;
2022/07/19 02:31:00;;;;;;;0.7;0.7;;;;;;;23.2;77.5;101490;;;;
2022/07/19 02:32:00;;;;;;;0.7;0.7;;;;;;;23.2;77.6;101500;;;;
2022/07/19 02:33:00;;;;;;;0.7;0.7;;;;;;;23.2;77.6;101500;;;;
2022/07/19 02:34:00;;;;;;;0.7;0.7;;;;;;;23.1;78.6;101500;;;;
2022/07/19 02:35:00;;;;;;;0.7;0.7;;;;;;;23.1;78.6;101500;;;;
2022/07/19 02:36:00;;;;;;;0.7;0.7;;;;;;;23.1;77.6;101500;;;;
2022/07/19 02:37:00;;;;;;;0.7;0.7;;;;;;;23.1;77.6;101500;;;;
2022/07/19 02:38:00;;;;;;;0.7;0.7;;;;;;;23.1;78.2;101500;;;;
2022/07/19 02:39:00;;;;;;;0.7;0.7;;;;;;;23.1;78.2;101500;;;;
2022/07/19 02:40:00;;;;;;;0.7;0.7;;;;;;;23.0;77.4;101500;;;;
2022/07/19 02:41:00;;;;;;;0.7;0.7;;;;;;;23.0;77.4;101500;;;;
2022/07/19 02:42:00;;;;;;;0.4;0.4;;;;;;;23.1;78.1;101500;;;;
2022/07/19 02:43:00;;;;;;;0.4;0.4;;;;;;;23.1;78.1;101500;;;;
2022/07/19 02:44:00;;;;;;;0.4;0.4;;;;;;;23.0;77.1;101490;;;;
2022/07/19 02:45:00;;;;;;;0.4;0.4;;;;;;;23.0;77.1;101490;;;;
2022/07/19 02:46:00;;;;;;;0.4;0.4;;;;;;;23.0;78.8;101490;;;;
2022/07/19 02:47:00;;;;;;;0.4;0.4;;;;;;;23.0;78.8;101490;;;;
2022/07/19 02:48:01;;;;;;;0.4;0.4;;;;;;;22.9;81.4;101490;;;;
2022/07/19 02:49:00;;;;;;;0.4;0.4;;;;;;;22.9;81.4;101490;;;;
2022/07/19 02:50:00;;;;;;;0.4;0.4;;;;;;;22.9;79.3;101490;;;;
2022/07/19 02:51:00;;;;;;;0.4;0.4;;;;;;;22.9;79.3;101490;;;;
2022/07/19 02:52:00;;;;;;;0.4;0.4;;;;;;;22.9;79.6;101490;;;;
2022/07/19 02:53:00;;;;;;;0.4;0.4;;;;;;;22.9;79.6;101490;;;;
2022/07/19 02:54:00;;;;;;;0.4;0.4;;;;;;;22.8;80.6;101490;;;;
2022/07/19 02:55:00;;;;;;;0.4;0.4;;;;;;;22.8;80.6;101490;;;;
2022/07/19 02:56:00;;;;;;;0.4;0.4;;;;;;;22.8;81.0;101490;;;;
2022/07/19 02:57:00;;;;;;;0.4;0.4;;;;;;;22.8;81.0;101490;;;;
2022/07/19 02:58:00;;;;;;;0.4;0.4;;;;;;;22.8;79.4;101490;;;;
2022/07/19 02:59:00;;;;;;;0.4;0.4;;;;;;;22.8;79.4;101490;;;;
2022/07/19 03:00:00;;;;;;;0.4;0.4;;;;;;;22.8;80.0;101490;;;;
2022/07/19 03:01:00;;;;;;;0.4;0.4;;;;;;;22.8;80.0;101490;;;;
2022/07/19 03:02:00;;;;;;;0.7;0.5;;;;;;;22.7;80.9;101490;;;;
2022/07/19 03:03:43;;;;;;;0.7;0.5;;;;;;;22.7;80.9;101490;;;;
2022/07/19 03:04:00;;;;;;;0.7;0.5;;;;;;;22.7;81.2;101490;;;;
2022/07/19 03:05:00;;;;;;;0.7;0.5;;;;;;;22.7;81.2;101490;;;;
2022/07/19 03:06:00;;;;;;;0.7;0.5;;;;;;;22.7;81.0;101490;;;;
2022/07/19 03:07:00;;;;;;;0.7;0.5;;;;;;;22.7;81.0;101490;;;;
2022/07/19 03:08:00;;;;;;;0.7;0.5;;;;;;;22.7;80.8;101490;;;;
2022/07/19 03:09:00;;;;;;;0.7;0.5;;;;;;;22.7;80.8;101490;;;;
2022/07/19 03:10:00;;;;;;;0.7;0.5;;;;;;;22.6;80.2;101490;;;;
2022/07/19 03:11:00;;;;;;;0.7;0.5;;;;;;;22.6;80.2;101490;;;;
2022/07/19 03:12:00;;;;;;;0.7;0.5;;;;;;;22.6;79.0;101490;;;;
2022/07/19 03:13:00;;;;;;;0.7;0.5;;;;;;;22.6;79.0;101490;;;;
2022/07/19 03:14:00;;;;;;;0.7;0.5;;;;;;;22.6;80.5;101480;;;;
2022/07/19 03:15:00;;;;;;;0.7;0.5;;;;;;;22.6;80.5;101480;;;;
2022/07/19 03:16:00;;;;;;;0.7;0.5;;;;;;;22.6;80.8;101480;;;;
2022/07/19 03:17:00;;;;;;;0.7;0.5;;;;;;;22.6;80.8;101480;;;;
2022/07/19 03:18:00;;;;;;;0.7;0.5;;;;;;;22.6;79.4;101480;;;;
2022/07/19 03:19:00;;;;;;;0.7;0.5;;;;;;;22.6;79.4;101480;;;;
2022/07/19 03:20:00;;;;;;;0.7;0.5;;;;;;;22.6;78.9;101480;;;;
2022/07/19 03:21:00;;;;;;;0.7;0.5;;;;;;;22.6;78.9;101480;;;;
2022/07/19 03:22:00;;;;;;;0.1;0.1;;;;;;;22.6;78.8;101470;;;;
2022/07/19 03:23:00;;;;;;;0.1;0.1;;;;;;;22.6;78.8;101470;;;;
2022/07/19 03:24:00;;;;;;;0.1;0.1;;;;;;;22.5;80.3;101470;;;;
2022/07/19 03:25:00;;;;;;;0.1;0.1;;;;;;;22.5;80.3;101470;;;;
2022/07/19 03:26:00;;;;;;;0.1;0.1;;;;;;;22.4;81.6;101470;;;;
2022/07/19 03:27:00;;;;;;;0.1;0.1;;;;;;;22.4;81.6;101470;;;;
2022/07/19 03:28:00;;;;;;;0.1;0.1;;;;;;;22.4;82.0;101470;;;;
2022/07/19 03:29:00;;;;;;;0.1;0.1;;;;;;;22.4;82.0;101470;;;;
2022/07/19 03:30:00;;;;;;;0.1;0.1;;;;;;;22.4;82.6;101470;;;;
2022/07/19 03:31:00;;;;;;;0.1;0.1;;;;;;;22.4;82.6;101470;;;;
2022/07/19 03:32:00;;;;;;;0.1;0.1;;;;;;;22.4;80.0;101470;;;;
2022/07/19 03:33:00;;;;;;;0.1;0.1;;;;;;;22.4;80.0;101470;;;;
2022/07/19 03:34:00;;;;;;;0.1;0.1;;;;;;;22.4;82.4;101470;;;;
2022/07/19 03:35:00;;;;;;;0.1;0.1;;;;;;;22.4;82.4;101470;;;;
2022/07/19 03:36:00;;;;;;;0.1;0.1;;;;;;;22.3;83.3;101470;;;;
2022/07/19 03:37:00;;;;;;;0.1;0.1;;;;;;;22.3;83.3;101470;;;;
2022/07/19 03:38:00;;;;;;;0.1;0.1;;;;;;;22.4;81.5;101470;;;;
2022/07/19 03:39:00;;;;;;;0.1;0.1;;;;;;;22.4;81.5;101470;;;;
2022/07/19 03:40:00;;;;;;;0.1;0.1;;;;;;;22.4;80.9;101470;;;;
2022/07/19 03:41:01;;;;;;;0.1;0.1;;;;;;;22.4;80.9;101470;;;;
2022/07/19 03:42:01;;;;;;;1.0;0.6;;;;;;;22.4;81.5;101470;;;;
2022/07/19 03:43:00;;;;;;;1.0;0.6;;;;;;;22.4;81.5;101470;;;;
2022/07/19 03:44:00;;;;;;;1.0;0.6;;;;;;;22.2;84.7;101470;;;;
2022/07/19 03:45:00;;;;;;;1.0;0.6;;;;;;;22.2;84.7;101470;;;;
2022/07/19 03:46:00;;;;;;;1.0;0.6;;;;;;;22.2;85.6;101470;;;;
2022/07/19 03:47:00;;;;;;;1.0;0.6;;;;;;;22.2;85.6;101470;;;;
2022/07/19 03:48:00;;;;;;;1.0;0.6;;;;;;;22.2;87.8;101470;;;;
2022/07/19 03:49:00;;;;;;;1.0;0.6;;;;;;;22.2;87.8;101470;;;;
2022/07/19 03:50:00;;;;;;;1.0;0.6;;;;;;;22.1;85.7;101470;;;;
2022/07/19 03:51:00;;;;;;;1.0;0.6;;;;;;;22.1;85.7;101470;;;;
2022/07/19 03:52:00;;;;;;;1.0;0.6;;;;;;;22.1;85.7;101470;;;;
2022/07/19 03:53:00;;;;;;;1.0;0.6;;;;;;;22.1;85.7;101470;;;;
2022/07/19 03:54:00;;;;;;;1.0;0.6;;;;;;;22.2;86.5;101470;;;;
2022/07/19 03:55:00;;;;;;;1.0;0.6;;;;;;;22.2;86.5;101470;;;;
2022/07/19 03:56:02;;;;;;;1.0;0.6;;;;;;;22.2;83.5;101470;;;;
2022/07/19 03:57:00;;;;;;;1.0;0.6;;;;;;;22.2;83.5;101470;;;;
2022/07/19 03:58:00;;;;;;;1.0;0.6;;;;;;;22.2;84.8;101470;;;;
2022/07/19 03:59:00;;;;;;;1.0;0.6;;;;;;;22.2;84.8;101470;;;;
2022/07/19 04:00:00;;;;;;;1.0;0.6;;;;;;;22.1;83.4;101470;;;;
2022/07/19 04:01:00;;;;;;;1.0;0.6;;;;;;;22.1;83.4;101470;;;;
2022/07/19 04:02:00;;;;;;;0.3;0.3;;;;;;;22.2;84.6;101480;;;;
2022/07/19 04:03:00;;;;;;;0.3;0.3;;;;;;;22.2;84.6;101480;;;;
2022/07/19 04:04:00;;;;;;;0.3;0.3;;;;;;;22.1;85.4;101480;;;;
2022/07/19 04:05:00;;;;;;;0.3;0.3;;;;;;;22.1;85.4;101480;;;;
2022/07/19 04:06:00;;;;;;;0.3;0.3;;;;;;;22.0;87.6;101480;;;;
2022/07/19 04:07:00;;;;;;;0.3;0.3;;;;;;;22.0;87.6;101480;;;;
2022/07/19 04:08:00;;;;;;;0.3;0.3;;;;;;;22.1;85.6;101480;;;;
2022/07/19 04:09:00;;;;;;;0.3;0.3;;;;;;;22.1;85.6;101480;;;;
2022/07/19 04:10:00;;;;;;;0.3;0.3;;;;;;;22.1;84.1;101480;;;;
2022/07/19 04:11:00;;;;;;;0.3;0.3;;;;;;;22.1;84.1;101480;;;;
2022/07/19 04:12:00;;;;;;;0.3;0.3;;;;;;;22.1;85.8;101490;;;;
2022/07/19 04:13:00;;;;;;;0.3;0.3;;;;;;;22.1;85.8;101490;;;;
2022/07/19 04:14:00;;;;;;;0.3;0.3;;;;;;;22.1;86.1;101490;;;;
2022/07/19 04:15:00;;;;;;;0.3;0.3;;;;;;;22.1;86.1;101490;;;;
2022/07/19 04:16:00;;;;;;;0.3;0.3;;;;;;;22.1;86.8;101490;;;;
2022/07/19 04:17:00;;;;;;;0.3;0.3;;;;;;;22.1;86.8;101490;;;;
2022/07/19 04:18:00;;;;;;;0.3;0.3;;;;;;;22.0;87.0;101490;;;;
2022/07/19 04:19:00;;;;;;;0.3;0.3;;;;;;;22.0;87.0;101490;;;;
2022/07/19 04:20:00;;;;;;;0.3;0.3;;;;;;;22.0;86.3;101480;;;;
2022/07/19 04:21:00;;;;;;;0.3;0.3;;;;;;;22.0;86.3;101480;;;;
2022/07/19 04:22:00;;;;;;;0.4;0.4;;;;;;;22.1;84.3;101480;;;;
2022/07/19 04:23:00;;;;;;;0.4;0.4;;;;;;;22.1;84.3;101480;;;;
2022/07/19 04:24:00;;;;;;;0.4;0.4;;;;;;;22.1;84.6;101480;;;;
2022/07/19 04:25:02;;;;;;;0.4;0.4;;;;;;;22.1;84.6;101480;;;;
2022/07/19 04:26:00;;;;;;;0.4;0.4;;;;;;;22.0;86.5;101480;;;;
2022/07/19 04:27:00;;;;;;;0.4;0.4;;;;;;;22.0;86.5;101480;;;;
2022/07/19 04:28:01;;;;;;;0.4;0.4;;;;;;;22.0;88.9;101480;;;;
2022/07/19 04:29:00;;;;;;;0.4;0.4;;;;;;;22.0;88.9;101480;;;;
2022/07/19 04:30:00;;;;;;;0.4;0.4;;;;;;;22.0;87.2;101480;;;;
2022/07/19 04:31:00;;;;;;;0.4;0.4;;;;;;;22.0;87.2;101480;;;;
2022/07/19 04:32:00;;;;;;;0.4;0.4;;;;;;;22.0;88.1;101480;;;;
2022/07/19 04:33:00;;;;;;;0.4;0.4;;;;;;;22.0;88.1;101480;;;;
2022/07/19 04:34:00;;;;;;;0.4;0.4;;;;;;;22.0;90.9;101480;;;;
2022/07/19 04:35:00;;;;;;;0.4;0.4;;;;;;;22.0;90.9;101480;;;;
2022/07/19 04:36:00;;;;;;;0.4;0.4;;;;;;;22.1;87.4;101480;;;;
2022/07/19 04:37:00;;;;;;;0.4;0.4;;;;;;;22.1;87.4;101480;;;;
2022/07/19 04:38:00;;;;;;;0.4;0.4;;;;;;;22.1;87.0;101480;;;;
2022/07/19 04:39:00;;;;;;;0.4;0.4;;;;;;;22.1;87.0;101480;;;;
2022/07/19 04:40:00;;;;;;;0.4;0.4;;;;;;;22.1;86.9;101480;;;;
2022/07/19 04:41:01;;;;;;;0.6;0.4;;;;;;;22.1;86.9;101480;;;;
2022/07/19 04:42:00;;;;;;;0.6;0.4;;;;;;;22.1;86.3;101480;;;;
2022/07/19 04:43:00;;;;;;;0.6;0.4;;;;;;;22.1;86.3;101480;;;;
2022/07/19 04:44:00;;;;;;;0.6;0.4;;;;;;;22.1;88.1;101480;;;;
2022/07/19 04:45:00;;;;;;;0.6;0.4;;;;;;;22.1;88.1;101480;;;;
2022/07/19 04:46:00;;;;;;;0.6;0.4;;;;;;;22.1;89.6;101480;;;;
2022/07/19 04:47:00;;;;;;;0.6;0.4;;;;;;;22.1;89.6;101480;;;;
2022/07/19 04:48:00;;;;;;;0.6;0.4;;;;;;;22.1;88.6;101480;;;;
2022/07/19 04:49:00;;;;;;;0.6;0.4;;;;;;;22.1;88.6;101480;;;;
2022/07/19 04:50:00;;;;;;;0.6;0.4;;;;;;;22.1;89.9;101480;;;;
2022/07/19 04:51:00;;;;;;;0.6;0.4;;;;;;;22.1;89.9;101480;;;;
2022/07/19 04:52:00;;;;;;;0.6;0.4;;;;;;;22.2;90.4;101480;;;;
2022/07/19 04:53:00;;;;;;;0.6;0.4;;;;;;;22.2;90.4;101480;;;;
2022/07/19 04:54:00;;;;;;;0.6;0.4;;;;;;;22.2;90.8;101480;;;;
2022/07/19 04:55:00;;;;;;;0.6;0.4;;;;;;;22.2;90.8;101480;;;;
2022/07/19 04:56:00;;;;;;;0.6;0.4;;;;;;;22.1;93.0;101480;;;;
2022/07/19 04:57:00;;;;;;;0.6;0.4;;;;;;;22.1;93.0;101480;;;;
2022/07/19 04:58:00;;;;;;;0.6;0.4;;;;;;;22.1;95.4;101480;;;;
2022/07/19 04:59:00;;;;;;;0.6;0.4;;;;;;;22.1;95.4;101480;;;;
2022/07/19 05:00:00;;;;;;;0.6;0.4;;;;;;;22.2;94.0;101480;;;;
2022/07/19 05:01:00;;;;;;;0.8;0.8;;;;;;;22.2;94.0;101480;;;;
2022/07/19 05:02:00;;;;;;;0.8;0.8;;;;;;;22.3;92.6;101480;;;;
2022/07/19 05:03:00;;;;;;;0.8;0.8;;;;;;;22.3;92.6;101480;;;;
2022/07/19 05:04:00;;;;;;;0.8;0.8;;;;;;;22.3;92.0;101480;;;;
2022/07/19 05:05:00;;;;;;;0.8;0.8;;;;;;;22.3;92.0;101480;;;;
2022/07/19 05:06:00;;;;;;;0.8;0.8;;;;;;;22.4;92.9;101480;;;;
2022/07/19 05:07:00;;;;;;;0.8;0.8;;;;;;;22.4;92.9;101480;;;;
2022/07/19 05:08:00;;;;;;;0.8;0.8;;;;;;;22.3;95.2;101480;;;;
2022/07/19 05:09:00;;;;;;;0.8;0.8;;;;;;;22.3;95.2;101480;;;;
2022/07/19 05:10:01;;;;;;;0.8;0.8;;;;;;;22.3;93.1;101480;;;;
2022/07/19 05:11:00;;;;;;;0.8;0.8;;;;;;;22.3;93.1;101480;;;;
2022/07/19 05:12:00;;;;;;;0.8;0.8;;;;;;;22.4;92.3;101480;;;;
2022/07/19 05:13:00;;;;;;;0.8;0.8;;;;;;;22.4;92.3;101480;;;;
2022/07/19 05:14:00;;;;;;;0.8;0.8;;;;;;;22.6;97.3;101490;;;;
2022/07/19 05:15:00;;;;;;;0.8;0.8;;;;;;;22.6;97.3;101490;;;;
2022/07/19 05:16:00;;;;;;;0.8;0.8;;;;;;;22.6;96.8;101480;;;;
2022/07/19 05:17:00;;;;;;;0.8;0.8;;;;;;;22.6;96.8;101480;;;;
2022/07/19 05:18:00;;;;;;;0.8;0.8;;;;;;;22.6;96.3;101480;;;;
2022/07/19 05:19:00;;;;;;;0.8;0.8;;;;;;;22.6;96.3;101480;;;;
2022/07/19 05:20:00;;;;;;;0.8;0.8;;;;;;;22.5;97.3;101480;;;;
2022/07/19 05:21:00;;;;;;;0.7;0.7;;;;;;;22.5;97.3;101480;;;;
2022/07/19 05:22:00;;;;;;;0.7;0.7;;;;;;;22.6;96.0;101480;;;;
2022/07/19 05:23:00;;;;;;;0.7;0.7;;;;;;;22.6;96.0;101480;;;;
2022/07/19 05:24:00;;;;;;;0.7;0.7;;;;;;;22.5;96.8;101480;;;;
2022/07/19 05:25:00;;;;;;;0.7;0.7;;;;;;;22.5;96.8;101480;;;;
2022/07/19 05:26:00;;;;;;;0.7;0.7;;;;;;;22.6;95.2;101480;;;;
2022/07/19 05:27:00;;;;;;;0.7;0.7;;;;;;;22.6;95.2;101480;;;;
2022/07/19 05:28:00;;;;;;;0.7;0.7;;;;;;;22.8;94.4;101480;;;;
2022/07/19 05:29:00;;;;;;;0.7;0.7;;;;;;;22.8;94.4;101480;;;;
2022/07/19 05:30:00;;;;;;;0.7;0.7;;;;;;;23.0;95.8;101480;;;;
2022/07/19 05:31:00;;;;;;;0.7;0.7;;;;;;;23.0;95.8;101480;;;;
2022/07/19 05:32:00;;;;;;;0.7;0.7;;;;;;;23.0;96.0;101480;;;;
2022/07/19 05:33:00;;;;;;;0.7;0.7;;;;;;;23.0;96.0;101480;;;;
2022/07/19 05:34:00;;;;;;;0.7;0.7;;;;;;;23.0;94.3;101490;;;;
2022/07/19 05:35:00;;;;;;;0.7;0.7;;;;;;;23.0;94.3;101490;;;;
2022/07/19 05:36:00;;;;;;;0.7;0.7;;;;;;;23.1;93.5;101480;;;;
2022/07/19 05:37:00;;;;;;;0.7;0.7;;;;;;;23.1;93.5;101480;;;;
2022/07/19 05:38:00;;;;;;;0.7;0.7;;;;;;;23.2;95.3;101480;;;;
2022/07/19 05:39:00;;;;;;;0.7;0.7;;;;;;;23.2;95.3;101480;;;;
2022/07/19 05:40:00;;;;;;;0.7;0.7;;;;;;;23.3;93.8;101480;;;;
2022/07/19 05:41:00;;;;;;;1.7;1.2;;;;;;;23.3;93.8;101480;;;;
2022/07/19 05:42:00;;;;;;;1.7;1.2;;;;;;;23.3;94.3;101480;;;;
2022/07/19 05:43:00;;;;;;;1.7;1.2;;;;;;;23.3;94.3;101480;;;;
2022/07/19 05:44:00;;;;;;;1.7;1.2;;;;;;;23.3;93.6;101480;;;;
2022/07/19 05:45:00;;;;;;;1.7;1.2;;;;;;;23.3;93.6;101480;;;;
2022/07/19 05:46:00;;;;;;;1.7;1.2;;;;;;;23.5;93.4;101480;;;;
2022/07/19 05:47:00;;;;;;;1.7;1.2;;;;;;;23.5;93.4;101480;;;;
2022/07/19 05:48:00;;;;;;;1.7;1.2;;;;;;;23.5;92.7;101480;;;;
2022/07/19 05:49:00;;;;;;;1.7;1.2;;;;;;;23.5;92.7;101480;;;;
2022/07/19 05:50:00;;;;;;;1.7;1.2;;;;;;;23.5;93.0;101480;;;;
2022/07/19 05:51:00;;;;;;;1.7;1.2;;;;;;;23.5;93.0;101480;;;;
2022/07/19 05:52:00;;;;;;;1.7;1.2;;;;;;;23.5;93.2;101480;;;;
2022/07/19 05:53:00;;;;;;;1.7;1.2;;;;;;;23.5;93.2;101480;;;;
2022/07/19 05:54:00;;;;;;;1.7;1.2;;;;;;;23.7;92.1;101490;;;;
2022/07/19 05:55:00;;;;;;;1.7;1.2;;;;;;;23.7;92.1;101490;;;;
2022/07/19 05:56:00;;;;;;;1.7;1.2;;;;;;;23.6;92.8;101490;;;;
2022/07/19 05:57:00;;;;;;;1.7;1.2;;;;;;;23.6;92.8;101490;;;;
2022/07/19 05:58:00;;;;;;;1.7;1.2;;;;;;;23.7;93.1;101490;;;;
2022/07/19 05:59:01;;;;;;;1.7;1.2;;;;;;;23.7;93.1;101490;;;;
2022/07/19 06:00:00;;;;;;;1.7;1.2;;;;;;;23.8;92.9;101490;;;;
2022/07/19 06:02:00;;;;;;;1.3;1.2;;;;;;;23.8;93.1;101490;;;;
2022/07/19 06:03:00;;;;;;;1.3;1.2;;;;;;;23.8;93.1;101490;;;;
2022/07/19 06:04:00;;;;;;;1.3;1.2;;;;;;;24.0;93.0;101480;;;;
2022/07/19 06:05:00;;;;;;;1.3;1.2;;;;;;;24.0;93.0;101480;;;;
2022/07/19 06:06:00;;;;;;;1.3;1.2;;;;;;;24.0;92.1;101480;;;;
2022/07/19 06:07:00;;;;;;;1.3;1.2;;;;;;;24.0;92.1;101480;;;;
2022/07/19 06:08:00;;;;;;;1.3;1.2;;;;;;;24.1;91.1;101480;;;;
2022/07/19 06:09:00;;;;;;;1.3;1.2;;;;;;;24.1;91.1;101480;;;;
2022/07/19 06:10:01;;;;;;;1.3;1.2;;;;;;;24.1;92.0;101480;;;;
2022/07/19 06:11:07;;;;;;;1.3;1.2;;;;;;;24.1;92.0;101480;;;;
2022/07/19 06:12:00;;;;;;;1.3;1.2;;;;;;;24.1;91.7;101480;;;;
2022/07/19 06:13:00;;;;;;;1.3;1.2;;;;;;;24.1;91.7;101480;;;;
2022/07/19 06:14:00;;;;;;;1.3;1.2;;;;;;;24.2;90.4;101480;;;;
2022/07/19 06:15:00;;;;;;;1.3;1.2;;;;;;;24.2;90.4;101480;;;;
2022/07/19 06:16:00;;;;;;;1.3;1.2;;;;;;;24.3;90.2;101480;;;;
2022/07/19 06:17:01;;;;;;;1.3;1.2;;;;;;;24.3;90.2;101480;;;;
2022/07/19 06:18:07;;;;;;;1.3;1.2;;;;;;;24.4;89.3;101480;;;;
2022/07/19 06:19:00;;;;;;;1.3;1.2;;;;;;;24.4;89.3;101480;;;;
2022/07/19 06:20:00;;;;;;;1.3;1.2;;;;;;;24.4;89.1;101480;;;;
2022/07/19 06:21:01;;;;;;;0.5;0.5;;;;;;;24.4;89.1;101480;;;;
2022/07/19 06:22:00;;;;;;;0.5;0.5;;;;;;;24.5;89.1;101480;;;;
2022/07/19 06:23:00;;;;;;;0.5;0.5;;;;;;;24.5;89.1;101480;;;;
2022/07/19 06:24:00;;;;;;;0.5;0.5;;;;;;;24.6;89.0;101480;;;;
2022/07/19 06:25:00;;;;;;;0.5;0.5;;;;;;;24.6;89.0;101480;;;;
2022/07/19 06:26:00;;;;;;;0.5;0.5;;;;;;;24.6;88.7;101480;;;;
2022/07/19 06:27:00;;;;;;;0.5;0.5;;;;;;;24.6;88.7;101480;;;;
2022/07/19 06:28:00;;;;;;;0.5;0.5;;;;;;;24.7;88.1;101490;;;;
2022/07/19 06:29:00;;;;;;;0.5;0.5;;;;;;;24.7;88.1;101490;;;;
2022/07/19 06:30:00;;;;;;;0.5;0.5;;;;;;;24.8;88.0;101490;;;;